White Stone, Virginia
Current Conditions -  °F | °C
As of 3:15 PM on Monday 26 Jan 2015 (Local Time) from KW75 Reporting Station
Overcast Overcast  
Wind Chill: 35°   Ceiling: 1200
Heat Index: 42°   Visibility: 7mi
Dew Point: 37°   Wind: 10mph
Humidity: 85%   Direction: 340°NNW
Pressure: 29.6"   Gusts: NA
Location:  37.65°N, 76.39°W
Report Text: KW75 262015Z AUTO 34009KT 7SM OVC012 05/03 A2960 RMK AO1 T00530030
Loading
Personal Weather Stations






























Interactive Weather Map New forecast layout! Learn more

10-Day Weather Forecast

Advertisements
Track Severe Weather on mobile